Home > Products > Valid Products > TAF

000
FTUS43 KMPX 281720
TAFMSP
TAF
KMSP 281720Z 2818/2924 16012G18KT P6SM FEW250
     FM290200 16014G22KT P6SM SCT110 BKN200
     FM291000 18016G26KT P6SM -RA SCT020 BKN040
     FM291300 21016G22KT P6SM SCT020 BKN040
     FM291500 27018G24KT P6SM SCT020 BKN050
     FM291800 30022G32KT P6SM SCT050=



000
FTUS43 KMPX 281720
TAFRWF
TAF
KRWF 281720Z 2818/2918 16014G22KT P6SM SCT045
     FM282100 17018G28KT P6SM FEW050 SCT200
     FM290900 20022G32KT P6SM -RA SCT020 BKN040
     FM291200 27018G28KT P6SM SCT050
     FM291400 30024G34KT P6SM SCT050=



000
FTUS43 KMPX 281720
TAFAXN
TAF
KAXN 281720Z 2818/2918 17014G24KT P6SM FEW040 SCT250
     FM290500 18018G28KT P6SM -RA SCT040 BKN090
     FM290800 20015G25KT P6SM -RA SCT020 BKN040
     FM291200 26018G26KT P6SM BKN020 BKN040
     FM291400 31022G34KT P6SM BKN020=



000
FTUS43 KMPX 281720
TAFSTC
TAF
KSTC 281720Z 2818/2918 17012G20KT P6SM SCT250
     FM290600 16018G24KT P6SM SCT050 BKN110
     FM290800 18016G24KT P6SM -RA SCT040 BKN090
     FM291000 18018G24KT P6SM -RA SCT020 BKN040
     FM291200 21015G24KT 5SM BR SCT020
     FM291400 29022G30KT 5SM BR BKN020=



000
FTUS43 KMPX 281720
TAFEAU
TAF
KEAU 281720Z 2818/2918 19009KT P6SM SKC
     FM290500 18012G20KT P6SM BKN150
     FM291100 18016G24KT 5SM -RASN BR SCT020 BKN040
     FM291400 21014G24KT 5SM -RA BKN020=



000
FTUS43 KMPX 281447 AAA
TAFMSP
TAF AMD
KMSP 281447Z 2815/2918 15008KT P6SM SKC
     FM281800 16012G19KT P6SM FEW200
     FM290500 17014G23KT P6SM BKN150
     FM291000 18016G26KT 5SM -RA OVC040=



000
FTUS43 KMPX 281447 AAA
TAFMSP
TAF AMD
KMSP 281447Z 2815/2918 15008KT P6SM SKC
     FM281800 16012G19KT P6SM FEW200
     FM290500 17014G23KT P6SM BKN150
     FM291000 18016G26KT 5SM -RA OVC040=



000
FTUS43 KMPX 281142
TAFEAU
TAF
KEAU 281142Z 2812/2912 00000KT P6SM SKC
     FM281700 19010KT P6SM SKC
     FM290500 18012G20KT P6SM BKN150=



000
FTUS43 KMPX 281142
TAFRWF
TAF
KRWF 281142Z 2812/2912 14007KT P6SM BKN050
     FM281500 15010G18KT P6SM SKC
     FM281900 17018G27KT P6SM SCT200
     FM290900 18021G31KT 6SM -RA OVC040=



000
FTUS43 KMPX 281142
TAFMSP
TAF
KMSP 281142Z 2812/2918 14005KT P6SM SKC
     FM281800 16012G19KT P6SM FEW200
     FM290500 17014G23KT P6SM BKN150
     FM291000 18016G26KT 5SM -RA OVC040=



000
FTUS43 KMPX 281142
TAFSTC
TAF
KSTC 281142Z 2812/2912 13003KT P6SM SKC
     FM281700 17013G21KT P6SM SCT200
     FM291000 19015G24KT 5SM -SNRA OVC030=



000
FTUS43 KMPX 281142
TAFAXN
TAF
KAXN 281142Z 2812/2912 14006KT P6SM BKN050
     FM281500 15010KT P6SM SKC
     FM281800 17018G27KT P6SM SCT200
     FM290800 20015G25KT 5SM -SNRA OVC030=



000
FTUS43 KMPX 281142
TAFEAU
TAF
KEAU 281142Z 2812/2912 00000KT P6SM SKC
     FM281700 19010KT P6SM SKC
     FM290500 18012G20KT P6SM BKN150=



000
FTUS43 KMPX 281142
TAFAXN
TAF
KAXN 281142Z 2812/2912 14006KT P6SM BKN050
     FM281500 15010KT P6SM SKC
     FM281800 17018G27KT P6SM SCT200
     FM290800 20015G25KT 5SM -SNRA OVC030=



000
FTUS43 KMPX 281142
TAFMSP
TAF
KMSP 281142Z 2812/2918 14005KT P6SM SKC
     FM281800 16012G19KT P6SM FEW200
     FM290500 17014G23KT P6SM BKN150
     FM291000 18016G26KT 5SM -RA OVC040=



000
FTUS43 KMPX 281142
TAFRWF
TAF
KRWF 281142Z 2812/2912 14007KT P6SM BKN050
     FM281500 15010G18KT P6SM SKC
     FM281900 17018G27KT P6SM SCT200
     FM290900 18021G31KT 6SM -RA OVC040=



000
FTUS43 KMPX 281142
TAFSTC
TAF
KSTC 281142Z 2812/2912 13003KT P6SM SKC
     FM281700 17013G21KT P6SM SCT200
     FM291000 19015G24KT 5SM -SNRA OVC030=



000
FTUS43 KMPX 280831 AAA
TAFMSP
TAF AMD
KMSP 280831Z 2809/2912 12004KT P6SM SKC
     FM281800 16013G20KT P6SM SKC
     FM290300 17015G25KT P6SM BKN150
     FM290900 18013KT 5SM -RA OVC040=



000
FTUS43 KMPX 280831 AAA
TAFMSP
TAF AMD
KMSP 280831Z 2809/2912 12004KT P6SM SKC
     FM281800 16013G20KT P6SM SKC
     FM290300 17015G25KT P6SM BKN150
     FM290900 18013KT 5SM -RA OVC040=



000
FTUS43 KMPX 280537
TAFAXN
TAF
KAXN 280537Z 2806/2906 14007KT P6SM BKN080
     FM280700 14007KT P6SM SKC
     FM281700 17018G27KT P6SM SCT200=



000
FTUS43 KMPX 280537
TAFSTC
TAF
KSTC 280537Z 2806/2906 15003KT P6SM BKN120
     FM280700 VRB03KT P6SM SKC
     FM281700 17015G23KT P6SM SCT200=



000
FTUS43 KMPX 280537
TAFMSP
TAF
KMSP 280537Z 2806/2912 13003KT P6SM BKN120
     FM280800 12005KT P6SM SKC
     FM281800 16013G22KT P6SM SKC
     FM290300 17015G25KT P6SM BKN150
     FM290900 18013KT 5SM -RA OVC040=



000
FTUS43 KMPX 280537
TAFRWF
TAF
KRWF 280537Z 2806/2906 13005KT P6SM OVC060
     FM280900 14007KT P6SM SKC
     FM281700 17017G27KT P6SM SCT200=



000
FTUS43 KMPX 280537
TAFEAU
TAF
KEAU 280537Z 2806/2906 VRB03KT P6SM SKC
     FM281700 19010KT P6SM SKC
     FM290300 18012KT P6SM BKN150=



000
FTUS43 KMPX 280537
TAFAXN
TAF
KAXN 280537Z 2806/2906 14007KT P6SM BKN080
     FM280700 14007KT P6SM SKC
     FM281700 17018G27KT P6SM SCT200=



000
FTUS43 KMPX 280537
TAFSTC
TAF
KSTC 280537Z 2806/2906 15003KT P6SM BKN120
     FM280700 VRB03KT P6SM SKC
     FM281700 17015G23KT P6SM SCT200=



000
FTUS43 KMPX 280537
TAFRWF
TAF
KRWF 280537Z 2806/2906 13005KT P6SM OVC060
     FM280900 14007KT P6SM SKC
     FM281700 17017G27KT P6SM SCT200=



000
FTUS43 KMPX 280537
TAFMSP
TAF
KMSP 280537Z 2806/2912 13003KT P6SM BKN120
     FM280800 12005KT P6SM SKC
     FM281800 16013G22KT P6SM SKC
     FM290300 17015G25KT P6SM BKN150
     FM290900 18013KT 5SM -RA OVC040=



000
FTUS43 KMPX 280537
TAFEAU
TAF
KEAU 280537Z 2806/2906 VRB03KT P6SM SKC
     FM281700 19010KT P6SM SKC
     FM290300 18012KT P6SM BKN150=



000
FTUS43 KMPX 280328 AAA
TAFMSP
TAF AMD
KMSP 280328Z 2803/2906 14003KT P6SM BKN100
     FM281000 13004KT P6SM SKC
     FM281800 16012G20KT P6SM SKC=



000
FTUS43 KMPX 280328 AAA
TAFMSP
TAF AMD
KMSP 280328Z 2803/2906 14003KT P6SM BKN100
     FM281000 13004KT P6SM SKC
     FM281800 16012G20KT P6SM SKC=



000
FTUS43 KMPX 272339
TAFMSP
TAF
KMSP 272339Z 2800/2906 20005KT P6SM BKN150
     FM280400 14003KT P6SM BKN100
     FM281000 13004KT P6SM SKC
     FM281800 16012G20KT P6SM SKC=



000
FTUS43 KMPX 272339
TAFAXN
TAF
KAXN 272339Z 2800/2824 18007KT P6SM OVC060
     FM281000 15008KT P6SM SKC
     FM281700 17016G25KT P6SM FEW200=



000
FTUS43 KMPX 272339
TAFRWF
TAF
KRWF 272339Z 2800/2824 16005KT P6SM OVC080
     FM281100 14007KT P6SM SKC
     FM281700 17017G26KT P6SM FEW200=



000
FTUS43 KMPX 272339
TAFEAU
TAF
KEAU 272339Z 2800/2824 VRB03KT P6SM SKC
     FM281700 19010KT P6SM SKC=



000
FTUS43 KMPX 272339
TAFMSP
TAF
KMSP 272339Z 2800/2906 20005KT P6SM BKN150
     FM280400 14003KT P6SM BKN100
     FM281000 13004KT P6SM SKC
     FM281800 16012G20KT P6SM SKC=



000
FTUS43 KMPX 272339
TAFSTC
TAF
KSTC 272339Z 2800/2824 16005KT P6SM OVC090
     FM280900 VRB03KT P6SM SKC
     FM281700 17013G22KT P6SM FEW200=



000
FTUS43 KMPX 272339
TAFAXN
TAF
KAXN 272339Z 2800/2824 18007KT P6SM OVC060
     FM281000 15008KT P6SM SKC
     FM281700 17016G25KT P6SM FEW200=



000
FTUS43 KMPX 272339
TAFRWF
TAF
KRWF 272339Z 2800/2824 16005KT P6SM OVC080
     FM281100 14007KT P6SM SKC
     FM281700 17017G26KT P6SM FEW200=



000
FTUS43 KMPX 272339
TAFEAU
TAF
KEAU 272339Z 2800/2824 VRB03KT P6SM SKC
     FM281700 19010KT P6SM SKC=



000
FTUS43 KMPX 272339
TAFSTC
TAF
KSTC 272339Z 2800/2824 16005KT P6SM OVC090
     FM280900 VRB03KT P6SM SKC
     FM281700 17013G22KT P6SM FEW200=



000
FTUS43 KMPX 272038 AAA
TAFMSP
TAF AMD
KMSP 272038Z 2721/2824 19004KT P6SM SCT250
     FM280500 VRB03KT P6SM FEW150
     FM281300 19005KT P6SM SCT100
     FM281600 17009G17KT P6SM FEW100=



000
FTUS43 KMPX 271737
TAFEAU
TAF
KEAU 271737Z 2718/2818 VRB03KT P6SM SKC
     FM281400 17008KT P6SM FEW120=



000
FTUS43 KMPX 271737
TAFMSP
TAF
KMSP 271737Z 2718/2824 VRB03KT P6SM SKC
     FM271900 19004KT P6SM SCT120
     FM280500 VRB03KT P6SM SKC
     FM281300 19005KT P6SM SCT100
     FM281600 17009G17KT P6SM FEW100=



000
FTUS43 KMPX 271737
TAFSTC
TAF
KSTC 271737Z 2718/2818 19006KT P6SM SCT150
     FM280000 16006KT P6SM OVC100
     FM280500 VRB03KT P6SM SCT100
     FM281500 17009G16KT P6SM SCT100=



000
FTUS43 KMPX 271737
TAFRWF
TAF
KRWF 271737Z 2718/2818 18007KT P6SM SCT120 BKN250
     FM280000 13006KT P6SM OVC050
     FM281500 17009G17KT P6SM SCT100=



000
FTUS43 KMPX 271737
TAFRWF
TAF
KRWF 271737Z 2718/2818 18007KT P6SM SCT120 BKN250
     FM280000 13006KT P6SM OVC050
     FM281500 17009G17KT P6SM SCT100=



000
FTUS43 KMPX 271737
TAFSTC
TAF
KSTC 271737Z 2718/2818 19006KT P6SM SCT150
     FM280000 16006KT P6SM OVC100
     FM280500 VRB03KT P6SM SCT100
     FM281500 17009G16KT P6SM SCT100=



000
FTUS43 KMPX 271737
TAFAXN
TAF
KAXN 271737Z 2718/2818 18008KT P6SM BKN120
     FM280200 16006KT P6SM BKN050
     FM281500 17010G17KT P6SM SCT100=



000
FTUS43 KMPX 271737
TAFMSP
TAF
KMSP 271737Z 2718/2824 VRB03KT P6SM SKC
     FM271900 19004KT P6SM SCT120
     FM280500 VRB03KT P6SM SKC
     FM281300 19005KT P6SM SCT100
     FM281600 17009G17KT P6SM FEW100=



000
FTUS43 KMPX 271737
TAFEAU
TAF
KEAU 271737Z 2718/2818 VRB03KT P6SM SKC
     FM281400 17008KT P6SM FEW120=



000
FTUS43 KMPX 271737
TAFAXN
TAF
KAXN 271737Z 2718/2818 18008KT P6SM BKN120
     FM280200 16006KT P6SM BKN050
     FM281500 17010G17KT P6SM SCT100=



000
FTUS43 KMPX 271418 AAA
TAFMSP
TAF AMD
KMSP 271418Z 2714/2818 02003KT P6SM SKC
     FM272200 19004KT P6SM BKN120
     FM280500 VRB03KT P6SM SKC
     FM281300 19005KT P6SM SCT120=



000
FTUS43 KMPX 271123
TAFMSP
TAF
KMSP 271123Z 2712/2818 35004KT P6SM SKC
     FM272200 19004KT P6SM BKN120
     FM280500 VRB03KT P6SM SKC
     FM281300 19005KT P6SM SCT120=



000
FTUS43 KMPX 271123
TAFRWF
TAF
KRWF 271123Z 2712/2812 34004KT P6SM SKC
     FM271900 18007KT P6SM SCT120 BKN250
     FM280000 13006KT P6SM OVC050
     FM280800 13005KT P6SM BKN100=



000
FTUS43 KMPX 271123
TAFAXN
TAF
KAXN 271123Z 2712/2812 VRB03KT P6SM SKC
     FM271900 18008KT P6SM BKN120
     FM280200 15006KT P6SM BKN050
     FM280800 15006KT P6SM BKN100=



000
FTUS43 KMPX 271123
TAFSTC
TAF
KSTC 271123Z 2712/2812 00000KT P6SM SKC
     FM271900 18006KT P6SM SCT150
     FM280000 16006KT P6SM OVC100
     FM280500 VRB03KT P6SM SCT100=



000
FTUS43 KMPX 271123
TAFEAU
TAF
KEAU 271123Z 2712/2812 35004KT P6SM SKC
     FM272200 24005KT P6SM SKC
     FM280100 VRB03KT P6SM SCT250=



000
FTUS43 KMPX 270848 AAA
TAFEAU
TAF AMD
KEAU 270848Z 2709/2806 VRB03KT P6SM SKC=



000
FTUS43 KMPX 270848 AAA
TAFMSP
TAF AMD
KMSP 270848Z 2709/2812 36007KT P6SM SKC
     FM271200 VRB03KT P6SM SKC
     FM272200 17005KT P6SM BKN120
     FM280600 VRB03KT P6SM SKC=



000
FTUS43 KMPX 270847 AAA
TAFRWF
TAF AMD
KRWF 270847Z 2709/2806 34005KT P6SM SKC
     FM271100 VRB03KT P6SM SKC
     FM271800 18007KT P6SM BKN120
     FM280000 13006KT P6SM OVC050=



000
FTUS43 KMPX 270847 AAA
TAFRWF
TAF AMD
KRWF 270847Z 2709/2806 34005KT P6SM SKC
     FM271100 VRB03KT P6SM SKC
     FM271800 18007KT P6SM BKN120
     FM280000 13006KT P6SM OVC050=



000
FTUS43 KMPX 270846 AAA
TAFAXN
TAF AMD
KAXN 270846Z 2709/2806 VRB03KT P6SM SKC
     FM271700 18008KT P6SM BKN120
     FM280000 15007KT P6SM OVC050=



000
FTUS43 KMPX 270846 AAA
TAFSTC
TAF AMD
KSTC 270846Z 2709/2806 36003KT P6SM SKC
     FM271100 VRB03KT P6SM SKC
     FM271900 18005KT P6SM BKN150
     FM280000 15004KT P6SM OVC090=



000
FTUS43 KMPX 270526
TAFMSP
TAF
KMSP 270526Z 2706/2812 36007KT P6SM SKC
     FM271200 VRB03KT P6SM SKC
     FM272200 17005KT P6SM BKN120
     FM280600 VRB03KT P6SM SKC=



000
FTUS43 KMPX 270526
TAFEAU
TAF
KEAU 270526Z 2706/2806 VRB04KT P6SM SKC=



000
FTUS43 KMPX 270526
TAFSTC
TAF
KSTC 270526Z 2706/2806 35006KT P6SM SKC
     FM270900 VRB03KT P6SM SKC
     FM271900 18005KT P6SM BKN150
     FM280000 15004KT P6SM OVC090=



000
FTUS43 KMPX 270526
TAFAXN
TAF
KAXN 270526Z 2706/2806 36006KT P6SM SKC
     FM270800 VRB03KT P6SM SKC
     FM271700 18008KT P6SM BKN120
     FM280000 15007KT P6SM OVC050=



000
FTUS43 KMPX 270526
TAFRWF
TAF
KRWF 270526Z 2706/2806 34007KT P6SM SKC
     FM271000 VRB03KT P6SM SKC
     FM271800 18007KT P6SM BKN120
     FM280000 13006KT P6SM OVC050=



000
FTUS43 KMPX 270353 AAA
TAFMSP
TAF AMD
KMSP 270353Z 2704/2806 35007KT P6SM SKC
     FM271000 VRB04KT P6SM SKC
     FM272100 17004KT P6SM BKN150=



000
FTUS43 KMPX 270353 AAA
TAFMSP
TAF AMD
KMSP 270353Z 2704/2806 35007KT P6SM SKC
     FM271000 VRB04KT P6SM SKC
     FM272100 17004KT P6SM BKN150=



000
FTUS43 KMPX 262334
TAFSTC
TAF
KSTC 262334Z 2700/2724 35007KT P6SM SKC
     FM270800 00000KT P6SM SKC
     FM271900 17005KT P6SM SCT150=



000
FTUS43 KMPX 262334
TAFMSP
TAF
KMSP 262334Z 2700/2806 33010KT P6SM SKC
     FM271000 VRB04KT P6SM SKC
     FM272100 17004KT P6SM BKN150=



000
FTUS43 KMPX 262334
TAFAXN
TAF
KAXN 262334Z 2700/2724 36009KT P6SM SKC
     FM270800 VRB03KT P6SM SKC
     FM271700 18008KT P6SM SCT090 BKN150=



000
FTUS43 KMPX 262334
TAFEAU
TAF
KEAU 262334Z 2700/2724 33006KT P6SM SCT050
     FM270100 35006KT P6SM SKC
     FM270900 VRB03KT P6SM SKC=



000
FTUS43 KMPX 262334
TAFRWF
TAF
KRWF 262334Z 2700/2724 34009KT P6SM OVC035
     FM270015 34008KT P6SM SKC
     FM271000 VRB03KT P6SM SKC
     FM271800 17007KT P6SM SCT090 BKN150=



000
FTUS43 KMPX 262334
TAFMSP
TAF
KMSP 262334Z 2700/2806 33010KT P6SM SKC
     FM271000 VRB04KT P6SM SKC
     FM272100 17004KT P6SM BKN150=



000
FTUS43 KMPX 262334
TAFAXN
TAF
KAXN 262334Z 2700/2724 36009KT P6SM SKC
     FM270800 VRB03KT P6SM SKC
     FM271700 18008KT P6SM SCT090 BKN150=



000
FTUS43 KMPX 262334
TAFSTC
TAF
KSTC 262334Z 2700/2724 35007KT P6SM SKC
     FM270800 00000KT P6SM SKC
     FM271900 17005KT P6SM SCT150=



000
FTUS43 KMPX 262334
TAFEAU
TAF
KEAU 262334Z 2700/2724 33006KT P6SM SCT050
     FM270100 35006KT P6SM SKC
     FM270900 VRB03KT P6SM SKC=



000
FTUS43 KMPX 262334
TAFRWF
TAF
KRWF 262334Z 2700/2724 34009KT P6SM OVC035
     FM270015 34008KT P6SM SKC
     FM271000 VRB03KT P6SM SKC
     FM271800 17007KT P6SM SCT090 BKN150=



000
FTUS43 KMPX 262002 AAA
TAFEAU
TAF AMD
KEAU 262002Z 2620/2718 32012G20KT P6SM BKN040
     FM270000 32009KT P6SM SCT040
     FM270300 35004KT P6SM SKC
     FM270800 35004KT P6SM FEW035=



000
FTUS43 KMPX 262001 AAA
TAFMSP
TAF AMD
KMSP 262001Z 2620/2724 32012G20KT P6SM BKN040
     FM262200 33009KT P6SM SCT045
     FM270000 36004KT P6SM SKC
     FM271400 VRB03KT P6SM SKC
     FM272100 16003KT P6SM FEW120=



000
FTUS43 KMPX 262001 AAA
TAFMSP
TAF AMD
KMSP 262001Z 2620/2724 32012G20KT P6SM BKN040
     FM262200 33009KT P6SM SCT045
     FM270000 36004KT P6SM SKC
     FM271400 VRB03KT P6SM SKC
     FM272100 16003KT P6SM FEW120=



000
FTUS43 KMPX 262000 AAA
TAFAXN
TAF AMD
KAXN 262000Z 2620/2718 33010G17KT P6SM OVC025
     FM262100 34013G22KT P6SM SCT035
     FM270000 36008KT P6SM SKC
     FM270800 VRB03KT P6SM FEW250
     FM271500 15004KT P6SM FEW120 SCT250=



000
FTUS43 KMPX 262000 AAA
TAFAXN
TAF AMD
KAXN 262000Z 2620/2718 33010G17KT P6SM OVC025
     FM262100 34013G22KT P6SM SCT035
     FM270000 36008KT P6SM SKC
     FM270800 VRB03KT P6SM FEW250
     FM271500 15004KT P6SM FEW120 SCT250=



000
FTUS43 KMPX 261959 AAA
TAFSTC
TAF AMD
KSTC 261959Z 2620/2718 33012G20KT P6SM OVC035
     FM262100 35012KT P6SM SCT035
     FM262300 35005KT P6SM SKC
     FM271200 VRB03KT P6SM SKC=



000
FTUS43 KMPX 261958 AAA
TAFRWF
TAF AMD
KRWF 261958Z 2620/2718 33012G18KT P6SM BKN035
     FM270000 35008KT P6SM SCT030
     FM270200 35007KT P6SM SKC
     FM271200 VRB02KT P6SM SCT250=



000
FTUS43 KMPX 261740
TAFRWF
TAF
KRWF 261740Z 2618/2718 33011G18KT P6SM BKN035
     FM261900 33012G18KT P6SM BKN025
     FM270000 35008KT P6SM SCT030
     FM270600 35007KT P6SM SKC
     FM271200 VRB02KT P6SM SCT250=



000
FTUS43 KMPX 261740
TAFMSP
TAF
KMSP 261740Z 2618/2724 32012G20KT P6SM BKN040
     FM270000 33009KT P6SM SCT045
     FM270600 36004KT P6SM SKC
     FM271400 VRB03KT P6SM SKC
     FM272100 16003KT P6SM FEW120=



000
FTUS43 KMPX 261740
TAFAXN
TAF
KAXN 261740Z 2618/2718 33010G17KT P6SM OVC025
     FM262100 34013G22KT P6SM BKN035
     FM270000 36008KT P6SM FEW035
     FM270300 36005KT P6SM SKC
     FM270800 VRB03KT P6SM FEW250
     FM271500 15004KT P6SM FEW120 SCT250=



000
FTUS43 KMPX 261740
TAFSTC
TAF
KSTC 261740Z 2618/2718 33012G20KT P6SM OVC035
     FM270000 35007KT P6SM SCT035
     FM270500 35005KT P6SM SKC
     FM271200 VRB03KT P6SM SKC=



000
FTUS43 KMPX 261740
TAFRWF
TAF
KRWF 261740Z 2618/2718 33011G18KT P6SM BKN035
     FM261900 33012G18KT P6SM BKN025
     FM270000 35008KT P6SM SCT030
     FM270600 35007KT P6SM SKC
     FM271200 VRB02KT P6SM SCT250=



000
FTUS43 KMPX 261740
TAFEAU
TAF
KEAU 261740Z 2618/2718 32012G20KT P6SM BKN035
     FM262300 32009KT P6SM BKN040
     FM270300 35004KT P6SM SCT040
     FM270700 35004KT P6SM FEW035=



000
FTUS43 KMPX 261740
TAFMSP
TAF
KMSP 261740Z 2618/2724 32012G20KT P6SM BKN040
     FM270000 33009KT P6SM SCT045
     FM270600 36004KT P6SM SKC
     FM271400 VRB03KT P6SM SKC
     FM272100 16003KT P6SM FEW120=



000
FTUS43 KMPX 261740
TAFEAU
TAF
KEAU 261740Z 2618/2718 32012G20KT P6SM BKN035
     FM262300 32009KT P6SM BKN040
     FM270300 35004KT P6SM SCT040
     FM270700 35004KT P6SM FEW035=



000
FTUS43 KMPX 261740
TAFSTC
TAF
KSTC 261740Z 2618/2718 33012G20KT P6SM OVC035
     FM270000 35007KT P6SM SCT035
     FM270500 35005KT P6SM SKC
     FM271200 VRB03KT P6SM SKC=



000
FTUS43 KMPX 261740
TAFAXN
TAF
KAXN 261740Z 2618/2718 33010G17KT P6SM OVC025
     FM262100 34013G22KT P6SM BKN035
     FM270000 36008KT P6SM FEW035
     FM270300 36005KT P6SM SKC
     FM270800 VRB03KT P6SM FEW250
     FM271500 15004KT P6SM FEW120 SCT250=



000
FTUS43 KMPX 261527 AAB
TAFEAU
TAF AMD
KEAU 261527Z 2615/2712 31012G20KT P6SM BKN035
     FM262300 32009KT P6SM BKN040
     FM270400 35004KT P6SM SKC=



000
FTUS43 KMPX 261527 AAB
TAFEAU
TAF AMD
KEAU 261527Z 2615/2712 31012G20KT P6SM BKN035
     FM262300 32009KT P6SM BKN040
     FM270400 35004KT P6SM SKC=



000
FTUS43 KMPX 261525 AAA
TAFAXN
TAF AMD
KAXN 261525Z 2615/2712 33011KT P6SM BKN025
     FM262000 34013G22KT P6SM SCT040
     FM270000 36008KT P6SM SKC
     FM270900 04003KT P6SM SKC=



000
FTUS43 KMPX 261525 AAA
TAFAXN
TAF AMD
KAXN 261525Z 2615/2712 33011KT P6SM BKN025
     FM262000 34013G22KT P6SM SCT040
     FM270000 36008KT P6SM SKC
     FM270900 04003KT P6SM SKC=



000
FTUS43 KMPX 261458 AAB
TAFMSP
TAF AMD
KMSP 261458Z 2615/2718 32012G20KT P6SM OVC035
     FM270000 33008KT P6SM SCT035
     FM270600 36003KT P6SM SKC=



000
FTUS43 KMPX 261458 AAB
TAFMSP
TAF AMD
KMSP 261458Z 2615/2718 32012G20KT P6SM OVC035
     FM270000 33008KT P6SM SCT035
     FM270600 36003KT P6SM SKC=



000
FTUS43 KMPX 261323 AAA
TAFMSP
TAF AMD
KMSP 261323Z 2613/2718 30011G19KT P6SM OVC035
      TEMPO 2613/2615 OVC030
     FM261500 32012G20KT P6SM BKN040
     FM270000 34008KT P6SM SKC
     FM270900 02003KT P6SM SKC=



000
FTUS43 KMPX 261208 AAA
TAFEAU
TAF AMD
KEAU 261208Z 2612/2712 31012G20KT P6SM OVC030
     FM262300 32009KT P6SM BKN040
     FM270400 35004KT P6SM SKC=



000
FTUS43 KMPX 261208 AAA
TAFEAU
TAF AMD
KEAU 261208Z 2612/2712 31012G20KT P6SM OVC030
     FM262300 32009KT P6SM BKN040
     FM270400 35004KT P6SM SKC=



000
FTUS43 KMPX 261120
TAFEAU
TAF
KEAU 261120Z 2612/2712 31012G20KT P6SM OVC035
     FM262300 32009KT P6SM BKN040
     FM270400 35004KT P6SM SKC=



000
FTUS43 KMPX 261120
TAFRWF
TAF
KRWF 261120Z 2612/2712 32008KT P6SM SKC
     FM261700 33011G18KT P6SM SCT035
     FM270000 35008KT P6SM SKC=



000
FTUS43 KMPX 261120
TAFMSP
TAF
KMSP 261120Z 2612/2718 30011G19KT P6SM BKN035
     FM261500 32012G20KT P6SM BKN040
     FM270000 34008KT P6SM SKC
     FM270900 02003KT P6SM SKC=



000
FTUS43 KMPX 261120
TAFAXN
TAF
KAXN 261120Z 2612/2712 33011KT P6SM SCT030
     FM261800 34013G22KT P6SM SCT040
     FM270000 36008KT P6SM SKC
     FM270900 04003KT P6SM SKC=



000
FTUS43 KMPX 261120
TAFSTC
TAF
KSTC 261120Z 2612/2712 32009KT P6SM SCT028
      TEMPO 2612/2614 BKN028
     FM261600 33012G20KT P6SM SCT035
     FM270000 35007KT P6SM SKC=



000
FTUS43 KMPX 260903 AAA
TAFEAU
TAF AMD
KEAU 260903Z 2609/2706 31012KT P6SM OVC035
     FM261600 32012G20KT P6SM BKN040
     FM270000 34006KT P6SM SKC=



000
FTUS43 KMPX 260859 AAA
TAFAXN
TAF AMD
KAXN 260859Z 2609/2706 32009KT P6SM BKN050
     FM261800 34013G22KT P6SM SCT050
     FM270000 01008KT P6SM SKC=



000
FTUS43 KMPX 260859 AAA
TAFAXN
TAF AMD
KAXN 260859Z 2609/2706 32009KT P6SM BKN050
     FM261800 34013G22KT P6SM SCT050
     FM270000 01008KT P6SM SKC=



000
FTUS43 KMPX 260856 AAB
TAFMSP
TAF AMD
KMSP 260856Z 2609/2712 30011G19KT P6SM BKN035
     FM261500 32012G20KT P6SM BKN040
     FM270000 34008KT P6SM SKC=



000
FTUS43 KMPX 260856 AAB
TAFMSP
TAF AMD
KMSP 260856Z 2609/2712 30011G19KT P6SM BKN035
     FM261500 32012G20KT P6SM BKN040
     FM270000 34008KT P6SM SKC=



000
FTUS43 KMPX 260746 AAA
TAFMSP
TAF AMD
KMSP 260746Z 2608/2712 30011KT P6SM BKN035
     FM261500 32012G20KT P6SM BKN040
     FM270000 34008KT P6SM SKC=



000
FTUS43 KMPX 260520
TAFEAU
TAF
KEAU 260520Z 2606/2706 28009KT P6SM BKN035
     FM261400 32012G20KT P6SM BKN050
     FM270000 34006KT P6SM SKC=



000
FTUS43 KMPX 260520
TAFMSP
TAF
KMSP 260520Z 2606/2712 30011KT P6SM SKC
     FM261500 32012G20KT P6SM SCT050
     FM270000 34008KT P6SM SKC=



000
FTUS43 KMPX 260520
TAFAXN
TAF
KAXN 260520Z 2606/2706 32009KT P6SM SKC
     FM261800 32013G22KT P6SM SCT040
     FM270000 35008KT P6SM SKC=



000
FTUS43 KMPX 260520
TAFRWF
TAF
KRWF 260520Z 2606/2706 31008KT P6SM SKC
     FM261700 32011G18KT P6SM SCT050
     FM270000 33008KT P6SM SKC=



000
FTUS43 KMPX 260520
TAFSTC
TAF
KSTC 260520Z 2606/2706 32009KT P6SM SKC
     FM261600 33012G20KT P6SM SCT050
     FM270000 35007KT P6SM SKC=



000
FTUS43 KMPX 260301 AAA
TAFMSP
TAF AMD
KMSP 260301Z 2603/2706 29014G20KT P6SM OVC035
     FM260400 29012G18KT P6SM SCT035
     FM260700 30011KT P6SM SKC
     FM261500 32012G20KT P6SM SCT050
     FM270000 35007KT P6SM SKC=



000
FTUS43 KMPX 252324
TAFRWF
TAF
KRWF 252324Z 2600/2624 31013G18KT P6SM OVC035
     FM260200 31012KT P6SM SCT040
     FM260600 31010KT P6SM SKC
     FM261700 32012G20KT P6SM SCT050=



000
FTUS43 KMPX 252324
TAFSTC
TAF
KSTC 252324Z 2600/2624 30015G24KT P6SM OVC035
     FM260300 31012G18KT P6SM SCT040
     FM260600 32010KT P6SM SKC
     FM261600 33012G20KT P6SM SCT050=



000
FTUS43 KMPX 252324
TAFEAU
TAF
KEAU 252324Z 2600/2624 26014G22KT P6SM OVC035
     FM260600 28010KT P6SM SKC
     FM261400 32012G20KT P6SM SCT040=



000
FTUS43 KMPX 252324
TAFMSP
TAF
KMSP 252324Z 2600/2706 29016G25KT P6SM OVC035
     FM260400 29013G19KT P6SM SCT035
     FM260700 30011KT P6SM SKC
     FM261500 32012G20KT P6SM SCT050
     FM270000 35007KT P6SM SKC=



000
FTUS43 KMPX 252324
TAFAXN
TAF
KAXN 252324Z 2600/2624 32016G25KT P6SM OVC035
     FM260200 32012G18KT P6SM SCT040
     FM260500 32009KT P6SM SKC
     FM261800 32013G22KT P6SM SCT050=



000
FTUS43 KMPX 252324
TAFEAU
TAF
KEAU 252324Z 2600/2624 26014G22KT P6SM OVC035
     FM260600 28010KT P6SM SKC
     FM261400 32012G20KT P6SM SCT040=



000
FTUS43 KMPX 252324
TAFAXN
TAF
KAXN 252324Z 2600/2624 32016G25KT P6SM OVC035
     FM260200 32012G18KT P6SM SCT040
     FM260500 32009KT P6SM SKC
     FM261800 32013G22KT P6SM SCT050=



000
FTUS43 KMPX 252324
TAFMSP
TAF
KMSP 252324Z 2600/2706 29016G25KT P6SM OVC035
     FM260400 29013G19KT P6SM SCT035
     FM260700 30011KT P6SM SKC
     FM261500 32012G20KT P6SM SCT050
     FM270000 35007KT P6SM SKC=



000
FTUS43 KMPX 252324
TAFRWF
TAF
KRWF 252324Z 2600/2624 31013G18KT P6SM OVC035
     FM260200 31012KT P6SM SCT040
     FM260600 31010KT P6SM SKC
     FM261700 32012G20KT P6SM SCT050=



000
FTUS43 KMPX 252324
TAFSTC
TAF
KSTC 252324Z 2600/2624 30015G24KT P6SM OVC035
     FM260300 31012G18KT P6SM SCT040
     FM260600 32010KT P6SM SKC
     FM261600 33012G20KT P6SM SCT050=



000
FTUS43 KMPX 252059 AAA
TAFMSP
TAF AMD
KMSP 252059Z 2521/2624 29020G30KT P6SM OVC035
     FM260100 29015G22KT P6SM SCT035
     FM260600 31013KT P6SM FEW250
     FM261800 32015G22KT P6SM SCT060=



    US Dept of Commerce
    National Oceanic and Atmospheric Administration
    National Weather Service
    1325 East West Highway
    Silver Spring, MD 20910
    Page Author: NWS Internet Services Team
Disclaimer
Information Quality
Credits
Glossary
Privacy Policy
Freedom of Information Act (FOIA)
About Us
Career Opportunities